sensor_id;sensor_type;location;lat;lon;timestamp;pressure;altitude;pressure_sealevel;temperature;humidity
40954;BME280;26686;50.130;8.710;2022-07-29T00:04:38;99966.19;;;22.67;38.25
40954;BME280;26686;50.130;8.710;2022-07-29T00:09:39;99970.16;;;22.64;37.61
40954;BME280;26686;50.130;8.710;2022-07-29T00:14:54;99977.03;;;22.67;37.83
40954;BME280;26686;50.130;8.710;2022-07-29T00:19:56;99979.75;;;22.67;38.02
40954;BME280;26686;50.130;8.710;2022-07-29T00:24:58;99998.09;;;22.38;37.15
40954;BME280;26686;50.130;8.710;2022-07-29T00:29:59;100016.63;;;22.28;37.62
40954;BME280;26686;50.130;8.710;2022-07-29T00:35:01;100029.38;;;22.34;39.22
40954;BME280;26686;50.130;8.710;2022-07-29T00:40:21;100019.16;;;22.42;38.63
40954;BME280;26686;50.130;8.710;2022-07-29T00:45:23;100020.22;;;22.41;39.08
40954;BME280;26686;50.130;8.710;2022-07-29T00:50:26;100007.09;;;22.45;38.34
40954;BME280;26686;50.130;8.710;2022-07-29T00:55:28;100005.41;;;22.44;37.41
40954;BME280;26686;50.130;8.710;2022-07-29T01:00:30;100001.66;;;22.38;37.47
40954;BME280;26686;50.130;8.710;2022-07-29T01:05:32;99997.69;;;22.41;36.79
40954;BME280;26686;50.130;8.710;2022-07-29T01:10:52;99994.13;;;22.47;37.29
40954;BME280;26686;50.130;8.710;2022-07-29T01:15:59;99979.53;;;22.48;36.21
40954;BME280;26686;50.130;8.710;2022-07-29T01:26:27;99967.66;;;22.49;36.92
40954;BME280;26686;50.130;8.710;2022-07-29T01:31:39;99963.69;;;22.45;36.75
40954;BME280;26686;50.130;8.710;2022-07-29T01:37:19;99958.28;;;22.38;37.65
40954;BME280;26686;50.130;8.710;2022-07-29T01:42:35;99945.97;;;22.36;37.65
40954;BME280;26686;50.130;8.710;2022-07-29T01:47:44;99946.38;;;22.33;37.72
40954;BME280;26686;50.130;8.710;2022-07-29T01:52:59;99942.81;;;22.25;37.83
40954;BME280;26686;50.130;8.710;2022-07-29T01:58:01;99939.06;;;22.27;38.30
40954;BME280;26686;50.130;8.710;2022-07-29T02:03:09;99948.22;;;22.19;38.54
40954;BME280;26686;50.130;8.710;2022-07-29T02:08:13;99947.78;;;22.02;40.01
40954;BME280;26686;50.130;8.710;2022-07-29T02:13:16;99951.09;;;21.97;40.16
40954;BME280;26686;50.130;8.710;2022-07-29T02:18:20;99954.88;;;22.03;40.78
40954;BME280;26686;50.130;8.710;2022-07-29T02:23:25;99942.34;;;22.02;40.80
40954;BME280;26686;50.130;8.710;2022-07-29T02:28:28;99939.22;;;21.98;40.50
40954;BME280;26686;50.130;8.710;2022-07-29T02:33:31;99942.16;;;21.97;41.91
40954;BME280;26686;50.130;8.710;2022-07-29T02:38:35;99932.75;;;21.93;42.16
40954;BME280;26686;50.130;8.710;2022-07-29T02:43:57;99938.19;;;21.93;41.87
40954;BME280;26686;50.130;8.710;2022-07-29T02:49:14;99930.25;;;21.91;42.42
40954;BME280;26686;50.130;8.710;2022-07-29T02:54:25;99926.47;;;21.85;42.11
40954;BME280;26686;50.130;8.710;2022-07-29T02:59:27;99919.63;;;21.83;42.42
40954;BME280;26686;50.130;8.710;2022-07-29T03:04:32;99922.91;;;21.78;42.36
40954;BME280;26686;50.130;8.710;2022-07-29T03:09:35;99918.97;;;21.74;42.85
40954;BME280;26686;50.130;8.710;2022-07-29T03:14:38;99931.47;;;21.68;44.28
40954;BME280;26686;50.130;8.710;2022-07-29T03:19:40;99935.19;;;21.61;43.46
40954;BME280;26686;50.130;8.710;2022-07-29T03:24:41;99934.94;;;21.56;43.42
40954;BME280;26686;50.130;8.710;2022-07-29T03:29:43;99933.84;;;21.43;44.77
40954;BME280;26686;50.130;8.710;2022-07-29T03:34:50;99931.72;;;21.32;45.61
40954;BME280;26686;50.130;8.710;2022-07-29T03:39:52;99943.72;;;21.23;46.53
40954;BME280;26686;50.130;8.710;2022-07-29T03:44:57;99934.53;;;21.10;47.63
40954;BME280;26686;50.130;8.710;2022-07-29T03:50:02;99932.78;;;20.96;48.15
40954;BME280;26686;50.130;8.710;2022-07-29T03:55:11;99935.69;;;20.94;48.47
40954;BME280;26686;50.130;8.710;2022-07-29T04:00:13;99917.19;;;20.98;48.48
40954;BME280;26686;50.130;8.710;2022-07-29T04:05:17;99919.66;;;20.93;48.13
40954;BME280;26686;50.130;8.710;2022-07-29T04:10:19;99919.72;;;20.71;48.70
40954;BME280;26686;50.130;8.710;2022-07-29T04:15:32;99931.66;;;20.55;48.84
40954;BME280;26686;50.130;8.710;2022-07-29T04:20:34;99933.56;;;20.33;50.15
40954;BME280;26686;50.130;8.710;2022-07-29T04:25:39;99929.91;;;20.47;48.94
40954;BME280;26686;50.130;8.710;2022-07-29T04:30:41;99931.38;;;20.43;48.13
40954;BME280;26686;50.130;8.710;2022-07-29T04:35:42;99921.22;;;20.52;47.71
40954;BME280;26686;50.130;8.710;2022-07-29T04:40:50;99924.31;;;20.49;47.54
40954;BME280;26686;50.130;8.710;2022-07-29T04:45:52;99910.56;;;20.44;47.51
40954;BME280;26686;50.130;8.710;2022-07-29T04:50:54;99910.75;;;20.42;46.97
40954;BME280;26686;50.130;8.710;2022-07-29T04:55:56;99912.44;;;20.43;46.37
40954;BME280;26686;50.130;8.710;2022-07-29T05:00:58;99917.84;;;20.43;45.68
40954;BME280;26686;50.130;8.710;2022-07-29T05:05:59;99929.16;;;20.54;45.39
40954;BME280;26686;50.130;8.710;2022-07-29T05:11:01;99929.19;;;20.60;44.82
40954;BME280;26686;50.130;8.710;2022-07-29T05:16:13;99923.09;;;20.73;45.75
40954;BME280;26686;50.130;8.710;2022-07-29T05:21:15;99933.59;;;20.90;45.36
40954;BME280;26686;50.130;8.710;2022-07-29T05:26:16;99946.13;;;20.97;44.87
40954;BME280;26686;50.130;8.710;2022-07-29T05:31:18;99942.81;;;21.02;45.92
40954;BME280;26686;50.130;8.710;2022-07-29T05:36:19;99949.47;;;21.06;45.70
40954;BME280;26686;50.130;8.710;2022-07-29T05:41:21;99946.22;;;21.17;45.86
40954;BME280;26686;50.130;8.710;2022-07-29T05:46:22;99948.16;;;21.30;45.77
40954;BME280;26686;50.130;8.710;2022-07-29T05:51:24;99955.69;;;21.35;45.27
40954;BME280;26686;50.130;8.710;2022-07-29T05:56:25;99944.66;;;21.36;45.46
40954;BME280;26686;50.130;8.710;2022-07-29T06:01:27;99955.38;;;21.51;46.37
40954;BME280;26686;50.130;8.710;2022-07-29T06:06:28;99952.91;;;21.63;46.06
40954;BME280;26686;50.130;8.710;2022-07-29T06:11:30;99964.78;;;21.69;46.83
40954;BME280;26686;50.130;8.710;2022-07-29T06:16:31;99956.50;;;21.77;45.57
40954;BME280;26686;50.130;8.710;2022-07-29T06:21:33;99952.75;;;21.92;44.85
40954;BME280;26686;50.130;8.710;2022-07-29T06:26:39;99963.22;;;22.08;44.02
40954;BME280;26686;50.130;8.710;2022-07-29T06:31:40;99957.38;;;22.24;43.22
40954;BME280;26686;50.130;8.710;2022-07-29T06:36:42;99948.25;;;22.39;43.65
40954;BME280;26686;50.130;8.710;2022-07-29T06:41:46;99954.09;;;22.49;43.32
40954;BME280;26686;50.130;8.710;2022-07-29T06:46:49;99953.47;;;22.67;43.49
40954;BME280;26686;50.130;8.710;2022-07-29T06:51:53;99961.16;;;22.77;43.41
40954;BME280;26686;50.130;8.710;2022-07-29T06:56:54;99964.06;;;22.95;42.41
40954;BME280;26686;50.130;8.710;2022-07-29T07:01:56;99969.88;;;23.06;42.07
40954;BME280;26686;50.130;8.710;2022-07-29T07:06:58;99968.22;;;23.18;41.77
40954;BME280;26686;50.130;8.710;2022-07-29T07:12:01;99976.34;;;23.32;41.76
40954;BME280;26686;50.130;8.710;2022-07-29T07:17:02;99985.63;;;23.56;40.31
40954;BME280;26686;50.130;8.710;2022-07-29T07:22:05;99992.00;;;23.75;40.22
40954;BME280;26686;50.130;8.710;2022-07-29T07:27:06;99990.50;;;23.92;40.50
40954;BME280;26686;50.130;8.710;2022-07-29T07:32:07;99984.94;;;24.12;39.71
40954;BME280;26686;50.130;8.710;2022-07-29T07:37:09;99981.50;;;24.24;39.47
40954;BME280;26686;50.130;8.710;2022-07-29T07:42:10;99989.25;;;24.52;37.93
40954;BME280;26686;50.130;8.710;2022-07-29T07:47:14;99982.13;;;24.51;37.64
40954;BME280;26686;50.130;8.710;2022-07-29T07:52:17;99988.41;;;24.58;38.44
40954;BME280;26686;50.130;8.710;2022-07-29T07:57:19;99991.69;;;24.67;36.82
40954;BME280;26686;50.130;8.710;2022-07-29T08:02:20;99984.88;;;24.76;36.88
40954;BME280;26686;50.130;8.710;2022-07-29T08:07:22;99977.53;;;24.77;36.65
40954;BME280;26686;50.130;8.710;2022-07-29T08:12:23;99975.69;;;25.14;36.95
40954;BME280;26686;50.130;8.710;2022-07-29T08:17:24;99976.31;;;25.53;35.93
40954;BME280;26686;50.130;8.710;2022-07-29T08:22:27;99978.50;;;25.63;36.59
40954;BME280;26686;50.130;8.710;2022-07-29T08:27:29;99985.94;;;25.56;37.02
40954;BME280;26686;50.130;8.710;2022-07-29T08:32:44;99982.75;;;25.59;37.10
40954;BME280;26686;50.130;8.710;2022-07-29T08:37:55;99977.53;;;26.06;36.55
40954;BME280;26686;50.130;8.710;2022-07-29T08:42:58;99974.16;;;26.23;36.48
40954;BME280;26686;50.130;8.710;2022-07-29T08:47:59;99975.34;;;26.39;36.02
40954;BME280;26686;50.130;8.710;2022-07-29T08:53:01;99974.22;;;26.82;36.16
40954;BME280;26686;50.130;8.710;2022-07-29T08:58:04;99978.25;;;27.03;34.86
40954;BME280;26686;50.130;8.710;2022-07-29T09:03:07;99981.47;;;27.00;35.19
40954;BME280;26686;50.130;8.710;2022-07-29T09:08:10;99985.59;;;27.14;34.75
40954;BME280;26686;50.130;8.710;2022-07-29T09:13:12;99978.28;;;27.56;33.91
40954;BME280;26686;50.130;8.710;2022-07-29T09:18:43;99980.88;;;28.03;33.93
40954;BME280;26686;50.130;8.710;2022-07-29T09:24:06;99976.78;;;28.06;34.04
40954;BME280;26686;50.130;8.710;2022-07-29T09:29:14;99971.19;;;28.29;33.79
40954;BME280;26686;50.130;8.710;2022-07-29T09:34:27;99974.03;;;28.51;33.82
40954;BME280;26686;50.130;8.710;2022-07-29T09:39:37;99971.06;;;28.36;34.17
40954;BME280;26686;50.130;8.710;2022-07-29T09:44:48;99964.16;;;28.50;33.27
40954;BME280;26686;50.130;8.710;2022-07-29T09:55:09;99955.56;;;28.98;33.20
40954;BME280;26686;50.130;8.710;2022-07-29T10:00:19;99958.25;;;29.15;32.65
40954;BME280;26686;50.130;8.710;2022-07-29T10:05:23;99951.78;;;29.43;32.73
40954;BME280;26686;50.130;8.710;2022-07-29T10:10:33;99951.75;;;29.87;32.05
40954;BME280;26686;50.130;8.710;2022-07-29T10:15:37;99947.16;;;29.71;32.10
40954;BME280;26686;50.130;8.710;2022-07-29T10:20:41;99945.28;;;29.49;31.69
40954;BME280;26686;50.130;8.710;2022-07-29T10:25:45;99933.72;;;29.96;32.22
40954;BME280;26686;50.130;8.710;2022-07-29T10:30:49;99938.25;;;30.78;31.57
40954;BME280;26686;50.130;8.710;2022-07-29T10:46:37;99940.66;;;32.06;28.78
40954;BME280;26686;50.130;8.710;2022-07-29T10:56:51;99923.97;;;33.24;28.39
40954;BME280;26686;50.130;8.710;2022-07-29T11:01:54;99929.81;;;33.73;26.42
40954;BME280;26686;50.130;8.710;2022-07-29T11:07:16;99922.94;;;33.60;26.08
40954;BME280;26686;50.130;8.710;2022-07-29T11:23:00;99900.19;;;33.39;27.52
40954;BME280;26686;50.130;8.710;2022-07-29T11:28:16;99902.94;;;33.89;26.65
40954;BME280;26686;50.130;8.710;2022-07-29T11:33:33;99914.47;;;34.30;26.09
40954;BME280;26686;50.130;8.710;2022-07-29T11:39:27;99893.78;;;34.57;24.86
40954;BME280;26686;50.130;8.710;2022-07-29T11:45:00;99897.38;;;34.58;25.18
40954;BME280;26686;50.130;8.710;2022-07-29T11:56:45;99896.00;;;34.26;25.49
40954;BME280;26686;50.130;8.710;2022-07-29T12:01:55;99877.88;;;34.14;25.98
40954;BME280;26686;50.130;8.710;2022-07-29T12:07:18;99881.16;;;33.82;26.05
40954;BME280;26686;50.130;8.710;2022-07-29T12:12:21;99872.47;;;33.59;25.48
40954;BME280;26686;50.130;8.710;2022-07-29T12:17:31;99865.81;;;33.65;25.85
40954;BME280;26686;50.130;8.710;2022-07-29T12:22:35;99867.00;;;33.94;26.45
40954;BME280;26686;50.130;8.710;2022-07-29T12:27:41;99863.16;;;33.90;25.94
40954;BME280;26686;50.130;8.710;2022-07-29T12:32:46;99860.03;;;33.62;25.97
40954;BME280;26686;50.130;8.710;2022-07-29T12:37:49;99848.50;;;33.55;25.37
40954;BME280;26686;50.130;8.710;2022-07-29T12:48:14;99838.16;;;33.36;26.19
40954;BME280;26686;50.130;8.710;2022-07-29T12:53:15;99830.47;;;33.33;26.38
40954;BME280;26686;50.130;8.710;2022-07-29T12:58:34;99825.41;;;33.40;26.69
40954;BME280;26686;50.130;8.710;2022-07-29T13:03:56;99821.91;;;33.35;26.47
40954;BME280;26686;50.130;8.710;2022-07-29T13:09:08;99824.66;;;33.35;25.67
40954;BME280;26686;50.130;8.710;2022-07-29T13:14:13;99813.47;;;33.05;27.01
40954;BME280;26686;50.130;8.710;2022-07-29T13:19:15;99820.31;;;33.23;26.49
40954;BME280;26686;50.130;8.710;2022-07-29T13:24:16;99822.22;;;33.18;26.16
40954;BME280;26686;50.130;8.710;2022-07-29T13:29:20;99823.88;;;33.19;26.34
40954;BME280;26686;50.130;8.710;2022-07-29T13:34:23;99817.78;;;32.62;27.56
40954;BME280;26686;50.130;8.710;2022-07-29T13:39:25;99808.25;;;32.28;27.27
40954;BME280;26686;50.130;8.710;2022-07-29T13:44:26;99808.28;;;32.02;27.70
40954;BME280;26686;50.130;8.710;2022-07-29T13:49:28;99799.44;;;32.21;28.02
40954;BME280;26686;50.130;8.710;2022-07-29T13:54:30;99798.63;;;31.89;27.96
40954;BME280;26686;50.130;8.710;2022-07-29T13:59:31;99804.44;;;31.83;28.07
40954;BME280;26686;50.130;8.710;2022-07-29T14:04:33;99809.56;;;31.33;28.11
40954;BME280;26686;50.130;8.710;2022-07-29T14:09:35;99810.38;;;31.08;29.12
40954;BME280;26686;50.130;8.710;2022-07-29T14:14:44;99807.78;;;30.85;29.16
40954;BME280;26686;50.130;8.710;2022-07-29T14:19:47;99804.19;;;30.85;29.41
40954;BME280;26686;50.130;8.710;2022-07-29T14:24:53;99800.91;;;30.83;29.71
40954;BME280;26686;50.130;8.710;2022-07-29T14:30:10;99807.94;;;30.58;29.62
40954;BME280;26686;50.130;8.710;2022-07-29T14:35:11;99821.31;;;30.07;30.10
40954;BME280;26686;50.130;8.710;2022-07-29T14:40:13;99833.09;;;29.70;33.26
40954;BME280;26686;50.130;8.710;2022-07-29T14:45:14;99836.81;;;29.09;36.55
40954;BME280;26686;50.130;8.710;2022-07-29T14:50:16;99841.63;;;28.57;37.98
40954;BME280;26686;50.130;8.710;2022-07-29T14:55:32;99864.78;;;28.50;41.95
40954;BME280;26686;50.130;8.710;2022-07-29T15:00:33;99865.31;;;28.69;43.63
40954;BME280;26686;50.130;8.710;2022-07-29T15:05:35;99863.06;;;29.05;43.08
40954;BME280;26686;50.130;8.710;2022-07-29T15:10:36;99853.78;;;29.28;42.63
40954;BME280;26686;50.130;8.710;2022-07-29T15:15:38;99859.03;;;29.35;41.24
40954;BME280;26686;50.130;8.710;2022-07-29T15:20:39;99853.03;;;29.38;41.45
40954;BME280;26686;50.130;8.710;2022-07-29T15:25:41;99849.53;;;29.42;38.79
40954;BME280;26686;50.130;8.710;2022-07-29T15:30:42;99857.25;;;29.46;39.31
40954;BME280;26686;50.130;8.710;2022-07-29T15:35:44;99855.59;;;29.44;37.24
40954;BME280;26686;50.130;8.710;2022-07-29T15:40:45;99849.56;;;29.20;36.44
40954;BME280;26686;50.130;8.710;2022-07-29T15:45:47;99864.78;;;29.33;36.83
40954;BME280;26686;50.130;8.710;2022-07-29T15:51:08;99865.41;;;29.18;36.86
40954;BME280;26686;50.130;8.710;2022-07-29T15:56:09;99870.19;;;29.06;36.10
40954;BME280;26686;50.130;8.710;2022-07-29T16:01:11;99862.19;;;29.21;35.63
40954;BME280;26686;50.130;8.710;2022-07-29T16:06:13;99867.47;;;29.06;34.11
40954;BME280;26686;50.130;8.710;2022-07-29T16:11:15;99893.00;;;28.89;33.70
40954;BME280;26686;50.130;8.710;2022-07-29T16:16:16;99898.38;;;28.28;40.94
40954;BME280;26686;50.130;8.710;2022-07-29T16:21:18;99905.75;;;27.65;42.97
40954;BME280;26686;50.130;8.710;2022-07-29T16:26:20;99910.00;;;27.32;43.93
40954;BME280;26686;50.130;8.710;2022-07-29T16:31:22;99902.28;;;27.29;44.96
40954;BME280;26686;50.130;8.710;2022-07-29T16:36:24;99897.94;;;27.28;45.02
40954;BME280;26686;50.130;8.710;2022-07-29T16:41:26;99910.25;;;27.30;45.10
40954;BME280;26686;50.130;8.710;2022-07-29T16:46:31;99916.47;;;27.14;44.23
40954;BME280;26686;50.130;8.710;2022-07-29T16:51:39;99927.91;;;26.87;44.22
40954;BME280;26686;50.130;8.710;2022-07-29T16:56:40;99919.63;;;26.82;44.39
40954;BME280;26686;50.130;8.710;2022-07-29T17:01:42;99935.88;;;26.65;45.27
40954;BME280;26686;50.130;8.710;2022-07-29T17:06:43;99936.69;;;26.54;45.21
40954;BME280;26686;50.130;8.710;2022-07-29T17:11:45;99940.22;;;26.31;45.78
40954;BME280;26686;50.130;8.710;2022-07-29T17:16:57;99942.66;;;26.08;46.79
40954;BME280;26686;50.130;8.710;2022-07-29T17:22:03;99945.53;;;25.83;47.17
40954;BME280;26686;50.130;8.710;2022-07-29T17:27:19;99946.75;;;25.57;47.22
40954;BME280;26686;50.130;8.710;2022-07-29T17:32:21;99947.09;;;25.61;47.64
40954;BME280;26686;50.130;8.710;2022-07-29T17:37:22;99959.75;;;25.55;47.38
40954;BME280;26686;50.130;8.710;2022-07-29T17:42:24;99964.94;;;25.45;48.37
40954;BME280;26686;50.130;8.710;2022-07-29T17:47:25;99964.44;;;25.29;48.68
40954;BME280;26686;50.130;8.710;2022-07-29T17:52:26;99967.75;;;25.13;48.92
40954;BME280;26686;50.130;8.710;2022-07-29T17:57:28;99986.06;;;25.05;47.73
40954;BME280;26686;50.130;8.710;2022-07-29T18:02:29;99999.81;;;24.92;48.24
40954;BME280;26686;50.130;8.710;2022-07-29T18:07:31;100037.97;;;24.85;48.01
40954;BME280;26686;50.130;8.710;2022-07-29T18:12:32;100043.59;;;24.65;49.13
40954;BME280;26686;50.130;8.710;2022-07-29T18:17:34;100019.84;;;24.47;51.03
40954;BME280;26686;50.130;8.710;2022-07-29T18:22:55;100001.13;;;24.32;53.30
40954;BME280;26686;50.130;8.710;2022-07-29T18:27:57;100011.81;;;24.27;53.76
40954;BME280;26686;50.130;8.710;2022-07-29T18:33:01;100022.97;;;24.19;54.36
40954;BME280;26686;50.130;8.710;2022-07-29T18:38:21;100032.53;;;24.28;55.27
40954;BME280;26686;50.130;8.710;2022-07-29T18:43:23;100042.59;;;24.21;54.88
40954;BME280;26686;50.130;8.710;2022-07-29T18:48:24;100049.03;;;23.95;56.44
40954;BME280;26686;50.130;8.710;2022-07-29T18:53:25;100043.00;;;23.86;56.32
40954;BME280;26686;50.130;8.710;2022-07-29T18:58:27;100044.03;;;23.85;54.60
40954;BME280;26686;50.130;8.710;2022-07-29T19:03:28;100044.06;;;23.72;55.53
40954;BME280;26686;50.130;8.710;2022-07-29T19:08:30;100043.03;;;23.73;54.74
40954;BME280;26686;50.130;8.710;2022-07-29T19:13:32;100045.53;;;23.74;55.28
40954;BME280;26686;50.130;8.710;2022-07-29T19:18:33;100054.06;;;23.78;56.14
40954;BME280;26686;50.130;8.710;2022-07-29T19:23:35;100057.22;;;23.75;57.48
40954;BME280;26686;50.130;8.710;2022-07-29T19:28:56;100052.66;;;23.69;57.60
40954;BME280;26686;50.130;8.710;2022-07-29T19:33:58;100062.53;;;23.56;57.50
40954;BME280;26686;50.130;8.710;2022-07-29T19:38:59;100075.72;;;23.46;57.38
40954;BME280;26686;50.130;8.710;2022-07-29T19:44:01;100084.75;;;23.33;59.97
40954;BME280;26686;50.130;8.710;2022-07-29T19:49:03;100110.41;;;23.30;60.22
40954;BME280;26686;50.130;8.710;2022-07-29T19:54:07;100099.38;;;23.19;60.93
40954;BME280;26686;50.130;8.710;2022-07-29T19:59:09;100104.97;;;23.04;62.72
40954;BME280;26686;50.130;8.710;2022-07-29T20:04:12;100113.94;;;23.04;62.52
40954;BME280;26686;50.130;8.710;2022-07-29T20:09:14;100120.84;;;23.07;62.21
40954;BME280;26686;50.130;8.710;2022-07-29T20:14:20;100115.44;;;23.00;61.24
40954;BME280;26686;50.130;8.710;2022-07-29T20:19:22;100124.63;;;22.92;61.49
40954;BME280;26686;50.130;8.710;2022-07-29T20:24:26;100141.69;;;22.86;62.27
40954;BME280;26686;50.130;8.710;2022-07-29T20:29:36;100164.03;;;22.75;61.87
40954;BME280;26686;50.130;8.710;2022-07-29T20:34:38;100159.03;;;22.72;61.71
40954;BME280;26686;50.130;8.710;2022-07-29T20:39:41;100156.50;;;22.70;62.41
40954;BME280;26686;50.130;8.710;2022-07-29T20:44:42;100159.44;;;22.75;62.63
40954;BME280;26686;50.130;8.710;2022-07-29T20:49:44;100154.47;;;22.92;62.24
40954;BME280;26686;50.130;8.710;2022-07-29T20:54:45;100160.28;;;22.89;62.46
40954;BME280;26686;50.130;8.710;2022-07-29T20:59:47;100166.53;;;22.83;63.35
40954;BME280;26686;50.130;8.710;2022-07-29T21:04:48;100173.22;;;22.81;63.53
40954;BME280;26686;50.130;8.710;2022-07-29T21:09:50;100180.31;;;22.75;63.74
40954;BME280;26686;50.130;8.710;2022-07-29T21:14:52;100174.22;;;22.66;64.27
40954;BME280;26686;50.130;8.710;2022-07-29T21:19:54;100156.25;;;22.52;65.01
40954;BME280;26686;50.130;8.710;2022-07-29T21:24:55;100152.66;;;22.38;66.12
40954;BME280;26686;50.130;8.710;2022-07-29T21:29:57;100162.47;;;22.39;66.05
40954;BME280;26686;50.130;8.710;2022-07-29T21:35:00;100157.25;;;22.44;66.44
40954;BME280;26686;50.130;8.710;2022-07-29T21:40:02;100158.75;;;22.47;66.63
40954;BME280;26686;50.130;8.710;2022-07-29T21:45:04;100167.28;;;22.50;66.48
40954;BME280;26686;50.130;8.710;2022-07-29T21:50:06;100160.22;;;22.49;66.03
40954;BME280;26686;50.130;8.710;2022-07-29T21:55:08;100167.13;;;22.58;65.83
40954;BME280;26686;50.130;8.710;2022-07-29T22:00:12;100154.84;;;22.63;65.53
40954;BME280;26686;50.130;8.710;2022-07-29T22:05:17;100149.63;;;22.61;65.74
40954;BME280;26686;50.130;8.710;2022-07-29T22:10:18;100139.56;;;22.48;66.31
40954;BME280;26686;50.130;8.710;2022-07-29T22:15:20;100158.53;;;22.48;66.69
40954;BME280;26686;50.130;8.710;2022-07-29T22:20:22;100155.81;;;22.48;66.09
40954;BME280;26686;50.130;8.710;2022-07-29T22:25:24;100164.78;;;22.42;67.09
40954;BME280;26686;50.130;8.710;2022-07-29T22:30:25;100165.94;;;22.26;66.92
40954;BME280;26686;50.130;8.710;2022-07-29T22:35:27;100152.97;;;22.21;67.11
40954;BME280;26686;50.130;8.710;2022-07-29T22:40:28;100161.31;;;22.13;67.99
40954;BME280;26686;50.130;8.710;2022-07-29T22:45:32;100160.25;;;22.14;67.43
40954;BME280;26686;50.130;8.710;2022-07-29T22:50:34;100160.03;;;22.09;67.08
40954;BME280;26686;50.130;8.710;2022-07-29T22:55:35;100159.19;;;22.09;67.75
40954;BME280;26686;50.130;8.710;2022-07-29T23:00:37;100171.75;;;22.16;67.92
40954;BME280;26686;50.130;8.710;2022-07-29T23:05:38;100170.50;;;22.19;67.39
40954;BME280;26686;50.130;8.710;2022-07-29T23:10:39;100174.66;;;22.21;67.39
40954;BME280;26686;50.130;8.710;2022-07-29T23:15:41;100170.53;;;22.25;67.11
40954;BME280;26686;50.130;8.710;2022-07-29T23:20:43;100180.09;;;22.21;67.00
40954;BME280;26686;50.130;8.710;2022-07-29T23:25:44;100189.09;;;22.29;65.99
40954;BME280;26686;50.130;8.710;2022-07-29T23:30:46;100183.91;;;22.34;65.14
40954;BME280;26686;50.130;8.710;2022-07-29T23:35:47;100181.41;;;22.32;65.28
40954;BME280;26686;50.130;8.710;2022-07-29T23:40:49;100177.22;;;22.30;64.97
40954;BME280;26686;50.130;8.710;2022-07-29T23:45:50;100176.16;;;22.31;64.30
40954;BME280;26686;50.130;8.710;2022-07-29T23:50:54;100180.13;;;22.28;63.85
40954;BME280;26686;50.130;8.710;2022-07-29T23:55:55;100179.47;;;22.19;63.90
